Map

Track Data

SID SEASON NUMBER BASIN SUBBASIN NAME ISO_TIME NATURE LAT LON WMO_WIND WMO_PRES WMO_AGENCY TRACK_TYPE DIST2LAND LANDFALL IFLAG USA_AGENCY USA_ATCF_ID USA_LAT USA_LON USA_RECORD USA_STATUS USA_WIND USA_PRES USA_SSHS USA_R34_NE USA_R34_SE USA_R34_SW USA_R34_NW USA_R50_NE USA_R50_SE USA_R50_SW USA_R50_NW USA_R64_NE USA_R64_SE USA_R64_SW USA_R64_NW USA_POCI USA_ROCI USA_RMW USA_EYE TOKYO_LAT TOKYO_LON TOKYO_GRADE TOKYO_WIND TOKYO_PRES TOKYO_R50_DIR TOKYO_R50_LONG TOKYO_R50_SHORT TOKYO_R30_DIR TOKYO_R30_LONG TOKYO_R30_SHORT TOKYO_LAND CMA_LAT CMA_LON CMA_CAT CMA_WIND CMA_PRES HKO_LAT HKO_LON HKO_CAT HKO_WIND HKO_PRES NEWDELHI_LAT NEWDELHI_LON NEWDELHI_GRADE NEWDELHI_WIND NEWDELHI_PRES NEWDELHI_CI NEWDELHI_DP NEWDELHI_POCI REUNION_LAT REUNION_LON REUNION_TYPE REUNION_WIND REUNION_PRES REUNION_TNUM REUNION_CI REUNION_RMW REUNION_R34_NE REUNION_R34_SE REUNION_R34_SW REUNION_R34_NW REUNION_R50_NE REUNION_R50_SE REUNION_R50_SW REUNION_R50_NW REUNION_R64_NE REUNION_R64_SE REUNION_R64_SW REUNION_R64_NW BOM_LAT BOM_LON BOM_TYPE BOM_WIND BOM_PRES BOM_TNUM BOM_CI BOM_RMW BOM_R34_NE BOM_R34_SE BOM_R34_SW BOM_R34_NW BOM_R50_NE BOM_R50_SE BOM_R50_SW BOM_R50_NW BOM_R64_NE BOM_R64_SE BOM_R64_SW BOM_R64_NW BOM_ROCI BOM_POCI BOM_EYE BOM_POS_METHOD BOM_PRES_METHOD NADI_LAT NADI_LON NADI_CAT NADI_WIND NADI_PRES WELLINGTON_LAT WELLINGTON_LON WELLINGTON_WIND WELLINGTON_PRES DS824_LAT DS824_LON DS824_STAGE DS824_WIND DS824_PRES TD9636_LAT TD9636_LON TD9636_STAGE TD9636_WIND TD9636_PRES TD9635_LAT TD9635_LON TD9635_WIND TD9635_PRES TD9635_ROCI NEUMANN_LAT NEUMANN_LON NEUMANN_CLASS NEUMANN_WIND NEUMANN_PRES MLC_LAT MLC_LON MLC_CLASS MLC_WIND MLC_PRES USA_GUST BOM_GUST BOM_GUST_PER REUNION_GUST REUNION_GUST_PER USA_SEAHGT USA_SEARAD_NE USA_SEARAD_SE USA_SEARAD_SW USA_SEARAD_NW STORM_SPEED STORM_DIR
1892256N15341 1892 43 NA NA NOT_NAMED 1892-09-12 00:00:00 TS 15.3000 -19.5000 35 hurdat_atl main 225 225 O_____________ hurdat_atl AL051892 15.3000 -19.5000 TS 35 0 10 276
1892256N15341 1892 43 NA NA NOT_NAMED 1892-09-12 03:00:00 TS 15.3502 -19.9950 main 279 279 P_____________ AL051892 15.3502 -19.9950 TS 37 0 10 276
1892256N15341 1892 43 NA NA NOT_NAMED 1892-09-12 06:00:00 TS 15.4000 -20.5000 40 hurdat_atl main 331 331 O_____________ hurdat_atl AL051892 15.4000 -20.5000 TS 40 0 10 276
1892256N15341 1892 43 NA NA NOT_NAMED 1892-09-12 09:00:00 TS 15.4500 -21.0150 main 384 384 P_____________ AL051892 15.4500 -21.0150 TS 42 0 10 276
1892256N15341 1892 43 NA NA NOT_NAMED 1892-09-12 12:00:00 TS 15.5000 -21.5000 45 hurdat_atl main 438 438 O_____________ hurdat_atl AL051892 15.5000 -21.5000 TS 45 0 9 277
1892256N15341 1892 43 NA NA NOT_NAMED 1892-09-12 15:00:00 TS 15.5499 -21.9225 main 480 480 P_____________ AL051892 15.5499 -21.9225 TS 47 0 8 277
1892256N15341 1892 43 NA NA NOT_NAMED 1892-09-12 18:00:00 TS 15.6000 -22.3000 50 hurdat_atl main 525 525 O_____________ hurdat_atl AL051892 15.6000 -22.3000 TS 50 0 7 277
1892256N15341 1892 43 NA NA NOT_NAMED 1892-09-12 21:00:00 TS 15.6424 -22.6650 main 567 567 P_____________ AL051892 15.6424 -22.6650 TS 52 0 7 278
1892256N15341 1892 43 NA NA NOT_NAMED 1892-09-13 00:00:00 TS 15.7000 -23.0000 55 hurdat_atl main 600 600 O_____________ hurdat_atl AL051892 15.7000 -23.0000 TS 55 0 6 284
1892256N15341 1892 43 NA NA NOT_NAMED 1892-09-13 03:00:00 TS 15.8000 -23.3150 main 634 634 P_____________ AL051892 15.8000 -23.3150 TS 57 0 6 289
1892256N15341 1892 43 NA NA NOT_NAMED 1892-09-13 06:00:00 TS 15.9000 -23.6000 60 hurdat_atl main 668 668 O_____________ hurdat_atl AL051892 15.9000 -23.6000 TS 60 0 5 287
1892256N15341 1892 43 NA NA NOT_NAMED 1892-09-13 09:00:00 TS 15.9499 -23.8426 main 689 689 P_____________ AL051892 15.9499 -23.8426 TS 62 0 5 282
1892256N15341 1892 43 NA NA NOT_NAMED 1892-09-13 12:00:00 TS 16.0000 -24.1000 65 hurdat_atl main 722 722 O_____________ hurdat_atl AL051892 16.0000 -24.1000 HU 65 1 6 284
1892256N15341 1892 43 NA NA NOT_NAMED 1892-09-13 15:00:00 TS 16.0925 -24.4350 main 756 756 P_____________ AL051892 16.0925 -24.4350 HU 67 1 7 287
1892256N15341 1892 43 NA NA NOT_NAMED 1892-09-13 18:00:00 TS 16.2000 -24.8000 70 hurdat_atl main 800 800 O_____________ hurdat_atl AL051892 16.2000 -24.8000 HU 70 1 7 287
1892256N15341 1892 43 NA NA NOT_NAMED 1892-09-13 21:00:00 TS 16.2999 -25.1500 main 844 844 P_____________ AL051892 16.2999 -25.1500 HU 72 1 7 287
1892256N15341 1892 43 NA NA NOT_NAMED 1892-09-14 00:00:00 TS 16.4000 -25.5000 75 hurdat_atl main 878 878 O_____________ hurdat_atl AL051892 16.4000 -25.5000 HU 75 1 7 286
1892256N15341 1892 43 NA NA NOT_NAMED 1892-09-14 03:00:00 TS 16.4924 -25.8426 main 911 911 P_____________ AL051892 16.4924 -25.8426 HU 77 1 7 287
1892256N15341 1892 43 NA NA NOT_NAMED 1892-09-14 06:00:00 TS 16.6000 -26.2000 80 hurdat_atl main 955 955 O_____________ hurdat_atl AL051892 16.6000 -26.2000 HU 80 1 8 290
1892256N15341 1892 43 NA NA NOT_NAMED 1892-09-14 09:00:00 TS 16.7500 -26.5999 main 1002 1002 P_____________ AL051892 16.7500 -26.5999 HU 82 1 8 291
1892256N15341 1892 43 NA NA NOT_NAMED 1892-09-14 12:00:00 TS 16.9000 -27.0000 85 hurdat_atl main 1046 1046 O_____________ hurdat_atl AL051892 16.9000 -27.0000 HU 85 2 8 290
1892256N15341 1892 43 NA NA NOT_NAMED 1892-09-14 15:00:00 TS 17.0074 -27.3576 main 1090 1090 P_____________ AL051892 17.0074 -27.3576 HU 85 2 7 287
1892256N15341 1892 43 NA NA NOT_NAMED 1892-09-14 18:00:00 TS 17.1000 -27.7000 85 hurdat_atl main 1123 1123 O_____________ hurdat_atl AL051892 17.1000 -27.7000 HU 85 2 7 287
1892256N15341 1892 43 NA NA NOT_NAMED 1892-09-14 21:00:00 TS 17.2074 -28.0425 main 1157 1157 P_____________ AL051892 17.2074 -28.0425 HU 85 2 7 287
1892256N15341 1892 43 NA NA NOT_NAMED 1892-09-15 00:00:00 TS 17.3000 -28.4000 85 hurdat_atl main 1201 1201 O_____________ hurdat_atl AL051892 17.3000 -28.4000 HU 85 2 7 281
1892256N15341 1892 43 NA NA NOT_NAMED 1892-09-15 03:00:00 TS 17.3500 -28.7926 main 1242 1242 P_____________ AL051892 17.3500 -28.7926 HU 85 2 8 277
1892256N15341 1892 43 NA NA NOT_NAMED 1892-09-15 06:00:00 TS 17.4000 -29.2000 85 hurdat_atl main 1286 1286 O_____________ hurdat_atl AL051892 17.4000 -29.2000 HU 85 2 8 280
1892256N15341 1892 43 NA NA NOT_NAMED 1892-09-15 09:00:00 TS 17.4773 -29.5777 main 1330 1330 P_____________ AL051892 17.4773 -29.5777 HU 85 2 8 285
1892256N15341 1892 43 NA NA NOT_NAMED 1892-09-15 12:00:00 TS 17.6000 -30.0000 85 hurdat_atl main 1374 1374 O_____________ hurdat_atl AL051892 17.6000 -30.0000 HU 85 2 10 289
1892256N15341 1892 43 NA NA NOT_NAMED 1892-09-15 15:00:00 TS 17.7850 -30.5200 main 1430 1430 P_____________ AL051892 17.7850 -30.5200 HU 85 2 11 291
1892256N15341 1892 43 NA NA NOT_NAMED 1892-09-15 18:00:00 TS 18.0000 -31.1000 85 hurdat_atl main 1497 1497 O_____________ hurdat_atl AL051892 18.0000 -31.1000 HU 85 2 12 290
1892256N15341 1892 43 NA NA NOT_NAMED 1892-09-15 21:00:00 TS 18.1924 -31.7002 main 1557 1557 P_____________ AL051892 18.1924 -31.7002 HU 85 2 12 289
1892256N15341 1892 43 NA NA NOT_NAMED 1892-09-16 00:00:00 TS 18.4000 -32.3000 85 hurdat_atl main 1613 1613 O_____________ hurdat_atl AL051892 18.4000 -32.3000 HU 85 2 12 292
1892256N15341 1892 43 NA NA NOT_NAMED 1892-09-16 03:00:00 TS 18.6423 -32.8576 main 1671 1669 P_____________ AL051892 18.6423 -32.8576 HU 85 2 12 296
1892256N15341 1892 43 NA NA NOT_NAMED 1892-09-16 06:00:00 TS 18.9000 -33.4000 85 hurdat_atl main 1717 1717 O_____________ hurdat_atl AL051892 18.9000 -33.4000 HU 85 2 12 296
1892256N15341 1892 43 NA NA NOT_NAMED 1892-09-16 09:00:00 TS 19.1498 -33.9502 main 1775 1773 P_____________ AL051892 19.1498 -33.9502 HU 85 2 12 296
1892256N15341 1892 43 NA NA NOT_NAMED 1892-09-16 12:00:00 TS 19.4000 -34.5000 85 hurdat_atl main 1822 1822 O_____________ hurdat_atl AL051892 19.4000 -34.5000 HU 85 2 12 295
1892256N15341 1892 43 NA NA NOT_NAMED 1892-09-16 15:00:00 TS 19.6423 -35.0502 main 1882 1880 P_____________ AL051892 19.6423 -35.0502 HU 85 2 12 296
1892256N15341 1892 43 NA NA NOT_NAMED 1892-09-16 18:00:00 TS 19.9000 -35.6000 85 hurdat_atl main 1930 1930 O_____________ hurdat_atl AL051892 19.9000 -35.6000 HU 85 2 12 298
1892256N15341 1892 43 NA NA NOT_NAMED 1892-09-16 21:00:00 TS 20.1998 -36.1501 main 1989 1988 P_____________ AL051892 20.1998 -36.1501 HU 85 2 12 300
1892256N15341 1892 43 NA NA NOT_NAMED 1892-09-17 00:00:00 TS 20.5000 -36.7000 85 hurdat_atl main 2038 2038 O_____________ hurdat_atl AL051892 20.5000 -36.7000 HU 85 2 12 298
1892256N15341 1892 43 NA NA NOT_NAMED 1892-09-17 03:00:00 TS 20.7573 -37.2503 main 2098 2098 P_____________ AL051892 20.7573 -37.2503 HU 85 2 11 296
1892256N15341 1892 43 NA NA NOT_NAMED 1892-09-17 06:00:00 TS 21.0000 -37.8000 85 hurdat_atl main 2148 2148 O_____________ hurdat_atl AL051892 21.0000 -37.8000 HU 85 2 12 295
1892256N15341 1892 43 NA NA NOT_NAMED 1892-09-17 09:00:00 TS 21.2500 -38.3651 main 2209 2208 P_____________ AL051892 21.2500 -38.3651 HU 85 2 11 296
1892256N15341 1892 43 NA NA NOT_NAMED 1892-09-17 12:00:00 TS 21.5000 -38.9000 85 hurdat_atl main 2259 2259 O_____________ hurdat_atl AL051892 21.5000 -38.9000 HU 85 2 11 298
1892256N15341 1892 43 NA NA NOT_NAMED 1892-09-17 15:00:00 TS 21.7573 -39.3726 main 2309 2309 P_____________ AL051892 21.7573 -39.3726 HU 85 2 10 301
1892256N15341 1892 43 NA NA NOT_NAMED 1892-09-17 18:00:00 TS 22.0000 -39.8000 85 hurdat_atl main 2331 2321 O_____________ hurdat_atl AL051892 22.0000 -39.8000 HU 85 2 9 300
1892256N15341 1892 43 NA NA NOT_NAMED 1892-09-17 21:00:00 TS 22.1998 -40.2078 main 2324 2314 P_____________ AL051892 22.1998 -40.2078 HU 85 2 8 298
1892256N15341 1892 43 NA NA NOT_NAMED 1892-09-18 00:00:00 TS 22.4000 -40.6000 85 hurdat_atl main 2317 2311 O_____________ hurdat_atl AL051892 22.4000 -40.6000 HU 85 2 9 301
1892256N15341 1892 43 NA NA NOT_NAMED 1892-09-18 03:00:00 TS 22.6424 -41.0001 main 2312 2310 P_____________ AL051892 22.6424 -41.0001 HU 85 2 9 304
1892256N15341 1892 43 NA NA NOT_NAMED 1892-09-18 06:00:00 TS 22.9000 -41.4000 85 hurdat_atl main 2317 2312 O_____________ hurdat_atl AL051892 22.9000 -41.4000 HU 85 2 9 305
1892256N15341 1892 43 NA NA NOT_NAMED 1892-09-18 09:00:00 TS 23.1498 -41.7927 main 2314 2314 P_____________ AL051892 23.1498 -41.7927 HU 85 2 9 304
1892256N15341 1892 43 NA NA NOT_NAMED 1892-09-18 12:00:00 TS 23.4000 -42.2000 85 hurdat_atl main 2322 2316 O_____________ hurdat_atl AL051892 23.4000 -42.2000 HU 85 2 9 302
1892256N15341 1892 43 NA NA NOT_NAMED 1892-09-18 15:00:00 TS 23.6424 -42.6427 main 2321 2321 P_____________ AL051892 23.6424 -42.6427 HU 85 2 10 301
1892256N15341 1892 43 NA NA NOT_NAMED 1892-09-18 18:00:00 TS 23.9000 -43.1000 85 hurdat_atl main 2326 2321 O_____________ hurdat_atl AL051892 23.9000 -43.1000 HU 85 2 10 304
1892256N15341 1892 43 NA NA NOT_NAMED 1892-09-18 21:00:00 TS 24.1999 -43.5500 main 2333 2333 P_____________ AL051892 24.1999 -43.5500 HU 85 2 10 306
1892256N15341 1892 43 NA NA NOT_NAMED 1892-09-19 00:00:00 TS 24.5000 -44.0000 85 hurdat_atl main 2333 2299 O_____________ hurdat_atl AL051892 24.5000 -44.0000 HU 85 2 10 304
1892256N15341 1892 43 NA NA NOT_NAMED 1892-09-19 03:00:00 TS 24.7499 -44.4503 main 2289 2258 P_____________ AL051892 24.7499 -44.4503 HU 85 2 10 301
1892256N15341 1892 43 NA NA NOT_NAMED 1892-09-19 06:00:00 TS 25.0000 -44.9000 85 hurdat_atl main 2258 2225 O_____________ hurdat_atl AL051892 25.0000 -44.9000 HU 85 2 10 304
1892256N15341 1892 43 NA NA NOT_NAMED 1892-09-19 09:00:00 TS 25.2999 -45.3575 main 2219 2190 P_____________ AL051892 25.2999 -45.3575 HU 85 2 10 306
1892256N15341 1892 43 NA NA NOT_NAMED 1892-09-19 12:00:00 TS 25.6000 -45.8000 85 hurdat_atl main 2190 2159 O_____________ hurdat_atl AL051892 25.6000 -45.8000 HU 85 2 9 306
1892256N15341 1892 43 NA NA NOT_NAMED 1892-09-19 15:00:00 TS 25.8498 -46.2079 main 2159 2132 P_____________ AL051892 25.8498 -46.2079 HU 85 2 9 305
1892256N15341 1892 43 NA NA NOT_NAMED 1892-09-19 18:00:00 TS 26.1000 -46.6000 85 hurdat_atl main 2132 2107 O_____________ hurdat_atl AL051892 26.1000 -46.6000 HU 85 2 9 308
1892256N15341 1892 43 NA NA NOT_NAMED 1892-09-19 21:00:00 TS 26.3999 -47.0001 main 2107 2082 P_____________ AL051892 26.3999 -47.0001 HU 85 2 9 310
1892256N15341 1892 43 NA NA NOT_NAMED 1892-09-20 00:00:00 TS 26.7000 -47.4000 85 hurdat_atl main 2082 2055 O_____________ hurdat_atl AL051892 26.7000 -47.4000 HU 85 2 9 308
1892256N15341 1892 43 NA NA NOT_NAMED 1892-09-20 03:00:00 TS 26.9574 -47.8077 main 2059 2032 P_____________ AL051892 26.9574 -47.8077 HU 85 2 9 305
1892256N15341 1892 43 NA NA NOT_NAMED 1892-09-20 06:00:00 TS 27.2000 -48.2000 85 hurdat_atl main 2032 2015 O_____________ hurdat_atl AL051892 27.2000 -48.2000 HU 85 2 8 306
1892256N15341 1892 43 NA NA NOT_NAMED 1892-09-20 09:00:00 TS 27.4424 -48.5652 main 2007 1996 P_____________ AL051892 27.4424 -48.5652 HU 85 2 8 309
1892256N15341 1892 43 NA NA NOT_NAMED 1892-09-20 12:00:00 TS 27.7000 -48.9000 85 hurdat_atl main 1996 1980 O_____________ hurdat_atl AL051892 27.7000 -48.9000 HU 85 2 8 313
1892256N15341 1892 43 NA NA NOT_NAMED 1892-09-20 15:00:00 TS 27.9849 -49.2152 main 1986 1971 P_____________ AL051892 27.9849 -49.2152 HU 82 1 8 319
1892256N15341 1892 43 NA NA NOT_NAMED 1892-09-20 18:00:00 TS 28.3000 -49.5000 80 hurdat_atl main 1977 1969 O_____________ hurdat_atl AL051892 28.3000 -49.5000 HU 80 1 8 323
1892256N15341 1892 43 NA NA NOT_NAMED 1892-09-20 21:00:00 TS 28.6349 -49.7651 main 1969 1969 P_____________ AL051892 28.6349 -49.7651 HU 80 1 8 328
1892256N15341 1892 43 NA NA NOT_NAMED 1892-09-21 00:00:00 TS 29.0000 -50.0000 80 hurdat_atl main 1977 1932 O_____________ hurdat_atl AL051892 29.0000 -50.0000 HU 80 1 9 332
1892256N15341 1892 43 NA NA NOT_NAMED 1892-09-21 03:00:00 TS 29.3925 -50.2151 main 1932 1886 P_____________ AL051892 29.3925 -50.2151 HU 80 1 9 336
1892256N15341 1892 43 NA NA NOT_NAMED 1892-09-21 06:00:00 TS 29.8000 -50.4000 80 hurdat_atl main 1886 1839 O_____________ hurdat_atl AL051892 29.8000 -50.4000 HU 80 1 9 339
1892256N15341 1892 43 NA NA NOT_NAMED 1892-09-21 09:00:00 TS 30.1850 -50.5652 main 1839 1794 P_____________ AL051892 30.1850 -50.5652 HU 77 1 8 342
1892256N15341 1892 43 NA NA NOT_NAMED 1892-09-21 12:00:00 TS 30.6000 -50.7000 75 hurdat_atl main 1794 1737 O_____________ hurdat_atl AL051892 30.6000 -50.7000 HU 75 1 9 346
1892256N15341 1892 43 NA NA NOT_NAMED 1892-09-21 15:00:00 TS 31.0850 -50.8372 main 1737 1681 P_____________ AL051892 31.0850 -50.8372 HU 72 1 10 350
1892256N15341 1892 43 NA NA NOT_NAMED 1892-09-21 18:00:00 TS 31.6000 -50.9000 70 hurdat_atl main 1681 1625 O_____________ hurdat_atl AL051892 31.6000 -50.9000 HU 70 1 10 0
1892256N15341 1892 43 NA NA NOT_NAMED 1892-09-21 21:00:00 TS 32.0925 -50.8451 main 1626 1572 P_____________ AL051892 32.0925 -50.8451 HU 70 1 10 10
1892256N15341 1892 43 NA NA NOT_NAMED 1892-09-22 00:00:00 TS 32.6000 -50.7000 70 hurdat_atl main 1572 1518 O_____________ hurdat_atl AL051892 32.6000 -50.7000 HU 70 1 11 14
1892256N15341 1892 43 NA NA NOT_NAMED 1892-09-22 03:00:00 TS 33.1499 -50.5298 main 1519 1456 P_____________ AL051892 33.1499 -50.5298 HU 70 1 12 17
1892256N15341 1892 43 NA NA NOT_NAMED 1892-09-22 06:00:00 TS 33.7000 -50.3000 70 hurdat_atl main 1456 1404 O_____________ hurdat_atl AL051892 33.7000 -50.3000 HU 70 1 11 21
1892256N15341 1892 43 NA NA NOT_NAMED 1892-09-22 09:00:00 TS 34.2222 -50.0445 main 1405 1356 P_____________ AL051892 34.2222 -50.0445 HU 67 1 11 26
1892256N15341 1892 43 NA NA NOT_NAMED 1892-09-22 12:00:00 TS 34.7000 -49.7000 65 hurdat_atl main 1356 1320 O_____________ hurdat_atl AL051892 34.7000 -49.7000 HU 65 1 11 36
1892256N15341 1892 43 NA NA NOT_NAMED 1892-09-22 15:00:00 TS 35.1147 -49.2593 main 1320 1288 P_____________ AL051892 35.1147 -49.2593 HU 62 0 11 46
1892256N15341 1892 43 NA NA NOT_NAMED 1892-09-22 18:00:00 TS 35.5000 -48.7000 60 hurdat_atl main 1290 1263 O_____________ hurdat_atl AL051892 35.5000 -48.7000 TS 60 0 13 51
1892256N15341 1892 43 NA NA NOT_NAMED 1892-09-22 21:00:00 TS 35.9143 -48.0671 main 1263 1242 P_____________ AL051892 35.9143 -48.0671 TS 55 0 14 55
1892256N15341 1892 43 NA NA NOT_NAMED 1892-09-23 00:00:00 TS 36.3000 -47.3000 50 hurdat_atl main 1245 1238 O_____________ hurdat_atl AL051892 36.3000 -47.3000 TS 50 0 15 62
1892256N15341 1892 43 NA NA NOT_NAMED 1892-09-23 03:00:00 TS 36.6145 -46.4089 main 1245 1239 P_____________ AL051892 36.6145 -46.4089 TS 47 0 16 69
1892256N15341 1892 43 NA NA NOT_NAMED 1892-09-23 06:00:00 TS 36.9000 -45.4000 45 hurdat_atl main 1255 1254 O_____________ hurdat_atl AL051892 36.9000 -45.4000 TS 45 0 18 71
1892256N15341 1892 43 NA NA NOT_NAMED 1892-09-23 09:00:00 TS 37.1937 -44.2550 main 1275 1275 P_____________ AL051892 37.1937 -44.2550 TS 40 0 18 71
1892256N15341 1892 43 NA NA NOT_NAMED 1892-09-23 12:00:00 TS 37.5000 -43.2000 35 hurdat_atl main 1302 1298 O_____________ hurdat_atl AL051892 37.5000 -43.2000 TS 35 0 16 66
1892256N15341 1892 43 NA NA NOT_NAMED 1892-09-23 15:00:00 TS 37.8392 -42.4530 main 1312 1306 P_____________ AL051892 37.8392 -42.4530 TS 30 -1 12 56
1892256N15341 1892 43 NA NA NOT_NAMED 1892-09-23 18:00:00 TS 38.2000 -41.9000 25 hurdat_atl main 1311 O_____________ hurdat_atl AL051892 38.2000 -41.9000 TD 25 -1 11 50

About IBTrACS Database

This database is a web-friendly format of International Best Track Archive for Climate Stewardship (IBTrACS), a global best track data archive curated by NOAA dating back to 1842.

Updated: 2021-12-06